Terminal Aerodrome Forecast
Issued by NWS

Home | Current Version | Previous Version | Text Only | Print | Product List | Glossary On
Versions: 1 2 3 4 5 6 7 8 9 10 11 12 13 14 15 16 17 18
000
FTUS43 KMQT 010636 AAA
TAFSAW
TAF AMD
KSAW 010636Z 0107/0206 22006KT P6SM SKC
      TEMPO 0107/0110 4SM BR
     FM011000 22005KT 4SM BR FEW090
     FM011300 21007KT 6SM BR FEW120
     FM011400 21007KT P6SM FEW150
     FM020200 00000KT P6SM SCT130=

USA.gov is the U.S. government's official web portal to all federal, state and local government web resources and services.